createdAt,value
2022-10-24T00:01:26.169Z,100432.91
2022-10-24T00:03:53.658Z,100437.28
2022-10-24T00:06:21.525Z,100434.59
2022-10-24T00:08:49.581Z,100439.09
2022-10-24T00:11:25.439Z,100435.69
2022-10-24T00:13:56.031Z,100434.72
2022-10-24T00:16:23.882Z,100429.31
2022-10-24T00:18:51.368Z,100431.88
2022-10-24T00:21:19.173Z,100426.53
2022-10-24T00:23:46.827Z,100425.59
2022-10-24T00:26:14.280Z,100433.44
2022-10-24T00:28:41.706Z,100429.84
2022-10-24T00:31:17.880Z,100426.31
2022-10-24T00:33:46.232Z,100422.81
2022-10-24T00:36:17.902Z,100429.84
2022-10-24T00:38:45.713Z,100421.88
2022-10-24T00:41:23.859Z,100417.50
2022-10-24T00:43:51.881Z,100412.13
2022-10-24T00:46:20.852Z,100417.41
2022-10-24T00:48:53.899Z,100410.34
2022-10-24T00:51:31.393Z,100400.72
2022-10-24T00:54:05.402Z,100392.84
2022-10-24T00:56:41.929Z,100391.06
2022-10-24T00:59:11.244Z,100392.69
2022-10-24T01:01:39.843Z,100401.44
2022-10-24T01:04:11.688Z,100383.00
2022-10-24T01:07:05.480Z,100377.72
2022-10-24T01:10:03.508Z,100382.91
2022-10-24T01:13:05.634Z,100384.59
2022-10-24T01:15:51.099Z,100388.09
2022-10-24T01:21:34.579Z,100375.53
2022-10-24T01:24:55.098Z,100381.56
2022-10-24T01:27:39.313Z,100391.28
2022-10-24T01:30:16.117Z,100374.56
2022-10-24T01:33:15.984Z,100378.06
2022-10-24T01:36:09.469Z,100371.97
2022-10-24T01:38:53.240Z,100360.44
2022-10-24T01:41:26.369Z,100363.00
2022-10-24T01:44:03.239Z,100354.16
2022-10-24T01:46:40.593Z,100355.81
2022-10-24T01:49:20.207Z,100352.31
2022-10-24T01:51:53.757Z,100351.47
2022-10-24T01:54:21.586Z,100355.91
2022-10-24T01:56:49.721Z,100348.81
2022-10-24T01:59:28.170Z,100347.91
2022-10-24T02:02:12.513Z,100336.38
2022-10-24T02:05:36.466Z,100338.88
2022-10-24T02:08:13.587Z,100324.72
2022-10-24T02:10:59.499Z,100325.44
2022-10-24T02:13:55.329Z,100334.22
2022-10-24T02:16:23.096Z,100326.25
2022-10-24T02:18:55.432Z,100334.13
2022-10-24T02:21:38.301Z,100328.75
2022-10-24T02:24:36.900Z,100319.78
2022-10-24T02:27:18.698Z,100324.97
2022-10-24T02:30:13.579Z,100317.91
2022-10-24T02:32:54.734Z,100321.31
2022-10-24T02:35:29.947Z,100323.88
2022-10-24T02:38:19.770Z,100314.13
2022-10-24T02:40:50.522Z,100312.25
2022-10-24T02:43:21.623Z,100315.75
2022-10-24T02:45:52.234Z,100317.53
2022-10-24T02:48:27.613Z,100313.94
2022-10-24T02:50:55.048Z,100315.72
2022-10-24T02:53:26.194Z,100320.91
2022-10-24T02:55:54.072Z,100314.53
2022-10-24T02:58:22.496Z,100320.59
2022-10-24T03:00:49.931Z,100310.78
2022-10-24T03:03:17.596Z,100299.97
2022-10-24T03:05:45.139Z,100291.81
2022-10-24T03:08:12.993Z,100288.03
2022-10-24T03:10:41.062Z,100285.78
2022-10-24T03:13:08.526Z,100305.69
2022-10-24T03:15:35.800Z,100308.38
2022-10-24T03:18:03.100Z,100308.44
2022-10-24T03:20:30.766Z,100321.66
2022-10-24T03:22:58.193Z,100328.03
2022-10-24T03:25:25.644Z,100322.03
2022-10-24T03:27:53.253Z,100324.78
2022-10-24T03:30:20.682Z,100313.41
2022-10-24T03:32:48.277Z,100323.91
2022-10-24T03:35:16.609Z,100323.97
2022-10-24T03:37:44.517Z,100312.59
2022-10-24T03:40:12.645Z,100319.59
2022-10-24T03:42:40.108Z,100335.44
2022-10-24T03:45:08.920Z,100346.09
2022-10-24T03:47:36.328Z,100333.66
2022-10-24T03:50:05.942Z,100335.34
2022-10-24T03:52:33.671Z,100341.31
2022-10-24T03:55:03.923Z,100345.78
2022-10-24T03:57:31.354Z,100352.78
2022-10-24T03:59:58.635Z,100344.81
2022-10-24T04:02:25.863Z,100344.81
2022-10-24T04:04:53.243Z,100345.69
2022-10-24T04:07:20.416Z,100357.09
2022-10-24T04:09:47.796Z,100351.81
2022-10-24T04:12:15.897Z,100348.25
2022-10-24T04:14:43.155Z,100339.28
2022-10-24T04:17:33.820Z,100340.81
2022-10-24T04:20:01.392Z,100341.53
2022-10-24T04:22:28.871Z,100337.63
2022-10-24T04:24:57.230Z,100337.31
2022-10-24T04:27:24.895Z,100344.13
2022-10-24T04:29:52.353Z,100352.69
2022-10-24T04:32:19.669Z,100349.59
2022-10-24T04:34:47.144Z,100351.41
2022-10-24T04:37:15.566Z,100345.41
2022-10-24T04:39:42.880Z,100354.38
2022-10-24T04:42:10.381Z,100354.78
2022-10-24T04:44:37.717Z,100347.75
2022-10-24T04:47:05.059Z,100338.84
2022-10-24T04:49:32.519Z,100343.16
2022-10-24T04:51:59.706Z,100335.75
2022-10-24T04:54:27.053Z,100329.38
2022-10-24T04:56:54.296Z,100337.31
2022-10-24T04:59:21.534Z,100335.09
2022-10-24T05:01:49.061Z,100336.75
2022-10-24T05:04:16.526Z,100331.59
2022-10-24T05:06:45.049Z,100324.53
2022-10-24T05:09:14.532Z,100323.69
2022-10-24T05:11:42.186Z,100316.75
2022-10-24T05:14:09.966Z,100317.59
2022-10-24T05:16:37.388Z,100313.09
2022-10-24T05:19:04.697Z,100308.72
2022-10-24T05:21:33.787Z,100298.19
2022-10-24T05:24:01.100Z,100294.63
2022-10-24T05:26:28.562Z,100288.44
2022-10-24T05:28:55.820Z,100290.09
2022-10-24T05:31:23.121Z,100291.78
2022-10-24T05:33:50.276Z,100299.63
2022-10-24T05:36:17.543Z,100299.75
2022-10-24T05:38:44.788Z,100297.25
2022-10-24T05:41:12.029Z,100303.34
2022-10-24T05:43:39.270Z,100287.41
2022-10-24T05:46:07.326Z,100297.09
2022-10-24T05:48:35.772Z,100288.38
2022-10-24T05:51:02.987Z,100293.53
2022-10-24T05:53:30.198Z,100291.84
2022-10-24T05:55:57.340Z,100307.88
2022-10-24T05:58:24.956Z,100300.75
2022-10-24T06:00:54.001Z,100293.69
2022-10-24T06:03:23.027Z,100290.31
2022-10-24T06:05:50.950Z,100292.00
2022-10-24T06:08:18.170Z,100286.66
2022-10-24T06:10:50.976Z,100288.47
2022-10-24T06:13:18.393Z,100291.22
2022-10-24T06:15:45.802Z,100287.63
2022-10-24T06:18:13.267Z,100284.13
2022-10-24T06:20:40.429Z,100285.84
2022-10-24T06:23:07.873Z,100282.19
2022-10-24T06:25:35.332Z,100298.91
2022-10-24T06:28:02.618Z,100296.34
2022-10-24T06:30:29.872Z,100294.69
2022-10-24T06:32:57.008Z,100303.56
2022-10-24T06:35:24.131Z,100294.19
2022-10-24T06:37:51.637Z,100296.19
2022-10-24T06:40:19.175Z,100291.13
2022-10-24T06:42:46.792Z,100292.09
2022-10-24T06:45:14.488Z,100298.53
2022-10-24T06:47:42.165Z,100319.13
2022-10-24T06:50:09.906Z,100311.38
2022-10-24T06:52:37.730Z,100295.19
2022-10-24T06:55:06.034Z,100296.59
2022-10-24T06:57:33.197Z,100298.47
2022-10-24T07:00:00.368Z,100305.06
2022-10-24T07:02:27.836Z,100305.44
2022-10-24T07:04:57.480Z,100309.03
2022-10-24T07:07:24.923Z,100314.03
2022-10-24T07:09:56.513Z,100312.06
2022-10-24T07:12:25.636Z,100323.97
2022-10-24T07:14:53.085Z,100332.84
2022-10-24T07:17:20.620Z,100325.16
2022-10-24T07:19:56.405Z,100314.53
2022-10-24T07:22:24.491Z,100321.47
2022-10-24T07:24:55.884Z,100329.97
2022-10-24T07:27:24.303Z,100326.56
2022-10-24T07:29:51.626Z,100319.78
2022-10-24T07:32:20.822Z,100326.22
2022-10-24T07:34:48.202Z,100329.50
2022-10-24T07:37:17.915Z,100319.56
2022-10-24T07:39:46.580Z,100305.69
2022-10-24T07:42:15.547Z,100308.88
2022-10-24T07:44:42.841Z,100308.88
2022-10-24T07:47:10.222Z,100321.22
2022-10-24T07:49:37.633Z,100329.41
2022-10-24T07:52:05.924Z,100326.31
2022-10-24T07:54:36.301Z,100327.69
2022-10-24T07:57:05.233Z,100332.63
2022-10-24T07:59:47.744Z,100324.44
2022-10-24T08:02:17.391Z,100326.53
2022-10-24T08:04:44.946Z,100333.59
2022-10-24T08:07:13.631Z,100324.84
2022-10-24T08:09:45.423Z,100321.38
2022-10-24T08:12:13.027Z,100319.81
2022-10-24T08:14:42.024Z,100315.44
2022-10-24T08:17:10.137Z,100305.91
2022-10-24T08:19:43.653Z,100304.53
2022-10-24T08:22:12.338Z,100318.56
2022-10-24T08:24:39.452Z,100317.63
2022-10-24T08:27:06.675Z,100319.22
2022-10-24T08:29:33.974Z,100328.00
2022-10-24T08:32:01.288Z,100334.13
2022-10-24T08:34:28.738Z,100325.34
2022-10-24T08:36:55.941Z,100320.91
2022-10-24T08:39:23.141Z,100328.91
2022-10-24T08:42:12.444Z,100317.91
2022-10-24T08:44:45.700Z,100320.47
2022-10-24T08:47:42.220Z,100310.69
2022-10-24T08:50:35.054Z,100307.22
2022-10-24T08:53:17.585Z,100308.13
2022-10-24T08:55:55.479Z,100309.16
2022-10-24T08:58:42.237Z,100312.88
2022-10-24T09:01:45.347Z,100304.28
2022-10-24T09:04:19.519Z,100303.44
2022-10-24T09:06:49.075Z,100301.72
2022-10-24T09:09:24.642Z,100286.72
2022-10-24T09:12:01.422Z,100290.09
2022-10-24T09:14:37.737Z,100290.94
2022-10-24T09:17:34.285Z,100287.47
2022-10-24T09:20:30.342Z,100276.72
2022-10-24T09:23:05.215Z,100283.91
2022-10-24T09:25:41.461Z,100278.84
2022-10-24T09:28:10.321Z,100267.44
2022-10-24T09:30:38.359Z,100267.47
2022-10-24T09:33:34.970Z,100275.50
2022-10-24T09:36:05.103Z,100270.16
2022-10-24T09:38:38.930Z,100271.97
2022-10-24T09:41:30.060Z,100277.28
2022-10-24T09:44:00.856Z,100288.75
2022-10-24T09:46:45.936Z,100274.69
2022-10-24T09:49:13.932Z,100261.47
2022-10-24T09:51:50.277Z,100258.00
2022-10-24T09:54:20.440Z,100258.94
2022-10-24T09:57:17.956Z,100268.56
2022-10-24T10:00:00.320Z,100260.75
2022-10-24T10:02:34.810Z,100259.00
2022-10-24T10:05:04.804Z,100265.44
2022-10-24T10:07:41.189Z,100257.06
2022-10-24T10:11:01.563Z,100245.16
2022-10-24T10:13:30.193Z,100243.31
2022-10-24T10:16:02.388Z,100238.22
2022-10-24T10:18:38.624Z,100241.66
2022-10-24T10:21:18.325Z,100237.19
2022-10-24T10:23:48.095Z,100249.50
2022-10-24T10:26:44.057Z,100245.53
2022-10-24T10:29:17.367Z,100236.56
2022-10-24T10:31:58.033Z,100233.78
2022-10-24T10:34:57.033Z,100256.03
2022-10-24T10:37:35.892Z,100251.84
2022-10-24T10:40:25.441Z,100231.50
2022-10-24T10:43:27.395Z,100241.13
2022-10-24T10:46:29.689Z,100217.47
2022-10-24T10:49:33.161Z,100217.00
2022-10-24T10:52:24.570Z,100205.72
2022-10-24T10:55:39.796Z,100204.81
2022-10-24T10:58:47.209Z,100203.31
2022-10-24T11:02:01.062Z,100194.84
2022-10-24T11:04:46.925Z,100199.16
2022-10-24T11:07:45.035Z,100191.63
2022-10-24T11:10:23.376Z,100199.00
2022-10-24T11:12:50.878Z,100190.94
2022-10-24T11:15:44.389Z,100187.47
2022-10-24T11:18:36.796Z,100171.03
2022-10-24T11:21:17.805Z,100172.69
2022-10-24T11:24:13.789Z,100163.19
2022-10-24T11:27:12.266Z,100152.97
2022-10-24T11:30:03.465Z,100155.13
2022-10-24T11:33:24.301Z,100146.34
2022-10-24T11:36:32.406Z,100141.97
2022-10-24T11:39:22.879Z,100135.81
2022-10-24T11:42:36.252Z,100141.97
2022-10-24T11:45:16.186Z,100128.63
2022-10-24T11:47:53.323Z,100123.31
2022-10-24T11:50:52.697Z,100102.16
2022-10-24T11:53:51.412Z,100098.72
2022-10-24T11:56:34.793Z,100102.38
2022-10-24T11:59:06.656Z,100096.16
2022-10-24T12:02:07.296Z,100095.22
2022-10-24T12:04:52.600Z,100100.50
2022-10-24T12:08:09.529Z,100088.88
2022-10-24T12:11:58.638Z,100082.66
2022-10-24T12:14:51.580Z,100070.34
2022-10-24T12:18:20.696Z,100068.63
2022-10-24T12:20:54.220Z,100061.53
2022-10-24T12:23:29.411Z,100058.00
2022-10-24T12:26:14.900Z,100057.09
2022-10-24T12:28:43.530Z,100065.09
2022-10-24T12:31:20.911Z,100058.03
2022-10-24T12:34:16.102Z,100055.34
2022-10-24T12:37:32.749Z,100034.00
2022-10-24T12:40:00.377Z,100033.09
2022-10-24T12:42:27.891Z,100027.75
2022-10-24T12:45:00.787Z,100018.00
2022-10-24T12:47:44.172Z,100020.66
2022-10-24T12:51:29.216Z,100027.75
2022-10-24T12:54:15.063Z,100026.88
2022-10-24T12:56:51.407Z,100018.81
2022-10-24T12:59:34.227Z,100015.22
2022-10-24T13:02:13.797Z,100005.41
2022-10-24T13:05:21.055Z,100006.13
2022-10-24T13:08:30.452Z,100013.84
2022-10-24T13:12:00.104Z,100010.13
2022-10-24T13:14:48.419Z,100010.38
2022-10-24T13:17:39.418Z,100006.28
2022-10-24T13:20:25.170Z,99992.09
2022-10-24T13:23:05.321Z,99988.56
2022-10-24T13:25:37.988Z,99994.78
2022-10-24T13:28:20.300Z,99984.22
2022-10-24T13:31:33.830Z,99976.22
2022-10-24T13:34:27.821Z,99988.66
2022-10-24T13:37:16.550Z,99975.34
2022-10-24T13:40:00.648Z,99975.31
2022-10-24T13:42:52.218Z,99957.53
2022-10-24T13:45:54.151Z,99960.19
2022-10-24T13:48:29.445Z,99947.78
2022-10-24T13:51:18.205Z,99950.41
2022-10-24T13:54:17.222Z,99949.47
2022-10-24T13:56:46.788Z,99943.34
2022-10-24T13:59:37.779Z,99955.78
2022-10-24T14:02:18.256Z,99948.53
2022-10-24T14:04:50.660Z,99952.91
2022-10-24T14:07:29.505Z,99950.34
2022-10-24T14:10:11.374Z,99961.09
2022-10-24T14:12:40.245Z,99973.53
2022-10-24T14:15:20.989Z,99968.22
2022-10-24T14:18:03.887Z,99963.75
2022-10-24T14:20:37.599Z,99975.31
2022-10-24T14:23:28.329Z,99973.50
2022-10-24T14:26:15.909Z,99961.09
2022-10-24T14:28:58.927Z,99964.66
2022-10-24T14:31:37.975Z,99955.78
2022-10-24T14:34:06.542Z,99949.53
2022-10-24T14:36:38.358Z,99951.31
2022-10-24T14:39:06.220Z,99948.63
2022-10-24T14:41:40.455Z,99948.59
2022-10-24T14:44:11.549Z,99946.84
2022-10-24T14:46:42.636Z,99945.03
2022-10-24T14:49:28.208Z,99945.94
2022-10-24T14:52:21.487Z,99941.47
2022-10-24T14:55:18.393Z,99940.56
2022-10-24T14:57:52.354Z,99939.66
2022-10-24T15:00:27.140Z,99944.09
2022-10-24T15:02:58.497Z,99944.09
2022-10-24T15:05:34.036Z,99947.63
2022-10-24T15:08:27.289Z,99944.06
2022-10-24T15:11:24.531Z,99935.16
2022-10-24T15:14:07.444Z,99928.94
2022-10-24T15:16:40.672Z,99911.16
2022-10-24T15:19:18.059Z,99926.22
2022-10-24T15:21:47.877Z,99928.84
2022-10-24T15:24:26.320Z,99931.53
2022-10-24T15:27:12.837Z,99926.19
2022-10-24T15:29:41.127Z,99928.81
2022-10-24T15:32:11.369Z,99928.78
2022-10-24T15:34:38.611Z,99929.63
2022-10-24T15:37:07.673Z,99909.22
2022-10-24T15:39:34.913Z,99912.72
2022-10-24T15:44:35.313Z,99935.81
2022-10-24T15:47:02.773Z,99935.88
2022-10-24T15:49:31.413Z,99934.06
2022-10-24T15:52:01.614Z,99930.47
2022-10-24T15:54:29.261Z,99928.59
2022-10-24T15:56:58.620Z,99918.78
2022-10-24T15:59:27.738Z,99914.31
2022-10-24T16:02:00.163Z,99916.97
2022-10-24T16:04:29.037Z,99915.13
2022-10-24T16:06:56.414Z,99912.47
2022-10-24T16:09:27.486Z,99913.41
2022-10-24T16:11:55.141Z,99910.75
2022-10-24T16:14:26.112Z,99902.75
2022-10-24T16:16:55.181Z,99901.81
2022-10-24T16:19:26.318Z,99900.97
2022-10-24T16:21:58.365Z,99915.19
2022-10-24T16:24:28.129Z,99907.16
2022-10-24T16:26:55.772Z,99899.16
2022-10-24T16:29:23.066Z,99904.41
2022-10-24T16:31:51.300Z,99908.78
2022-10-24T16:34:18.593Z,99908.72
2022-10-24T16:36:45.879Z,99912.06
2022-10-24T16:39:14.471Z,99911.19
2022-10-24T16:41:45.831Z,99903.25
2022-10-24T16:44:14.333Z,99908.50
2022-10-24T16:46:41.612Z,99904.03
2022-10-24T16:49:08.801Z,99892.53
2022-10-24T16:51:39.283Z,99909.34
2022-10-24T16:54:08.921Z,99907.59
2022-10-24T16:56:36.084Z,99898.69
2022-10-24T16:59:03.254Z,99889.88
2022-10-24T17:01:30.828Z,99904.03
2022-10-24T17:03:58.049Z,99914.63
2022-10-24T17:06:25.215Z,99919.06
2022-10-24T17:08:52.600Z,99920.81
2022-10-24T17:11:43.684Z,99910.16
2022-10-24T17:16:42.506Z,99915.59
2022-10-24T17:19:16.202Z,99919.19
2022-10-24T17:21:49.298Z,99920.03
2022-10-24T17:24:23.032Z,99921.81
2022-10-24T17:26:51.267Z,99917.31
2022-10-24T17:29:34.574Z,99927.91
2022-10-24T17:32:02.149Z,99924.34
2022-10-24T17:34:29.664Z,99915.38
2022-10-24T17:37:09.890Z,99909.13
2022-10-24T17:39:51.281Z,99908.28
2022-10-24T17:42:19.689Z,99915.34
2022-10-24T17:44:47.639Z,99923.34
2022-10-24T17:47:16.136Z,99924.22
2022-10-24T17:49:44.819Z,99930.34
2022-10-24T17:52:21.598Z,99940.03
2022-10-24T17:54:49.027Z,99936.25
2022-10-24T17:57:16.269Z,99930.84
2022-10-24T17:59:43.555Z,99941.44
2022-10-24T18:02:14.901Z,99937.09
2022-10-24T18:04:44.531Z,99948.63
2022-10-24T18:07:12.023Z,99950.38
2022-10-24T18:09:40.030Z,99947.72
2022-10-24T18:12:07.484Z,99944.06
2022-10-24T18:14:37.529Z,99944.81
2022-10-24T18:17:04.823Z,99943.88
2022-10-24T18:19:32.181Z,99941.22
2022-10-24T18:21:59.441Z,99942.22
2022-10-24T18:24:26.704Z,99943.78
2022-10-24T18:26:54.045Z,99946.34
2022-10-24T18:29:21.286Z,99947.88
2022-10-24T18:31:48.631Z,99954.84
2022-10-24T18:34:15.782Z,99949.44
2022-10-24T18:36:43.651Z,99948.56
2022-10-24T18:39:12.373Z,99948.63
2022-10-24T18:42:05.970Z,99952.97
2022-10-24T18:44:36.256Z,99954.72
2022-10-24T18:47:07.680Z,99950.16
2022-10-24T18:49:35.909Z,99943.19
2022-10-24T18:52:36.434Z,99938.91
2022-10-24T18:55:23.077Z,99945.91
2022-10-24T18:57:51.503Z,99949.31
2022-10-24T19:00:29.186Z,99953.72
2022-10-24T19:03:21.625Z,99952.84
2022-10-24T19:06:10.446Z,99958.09
2022-10-24T19:08:37.865Z,99953.69
2022-10-24T19:11:05.369Z,99955.50
2022-10-24T19:13:32.834Z,99956.38
2022-10-24T19:16:04.139Z,99951.13
2022-10-24T19:18:36.259Z,99962.69
2022-10-24T19:21:06.835Z,99966.28
2022-10-24T19:23:34.078Z,99968.97
2022-10-24T19:26:01.333Z,99969.81
2022-10-24T19:28:31.477Z,99962.72
2022-10-24T19:30:59.134Z,99953.84
2022-10-24T19:33:27.973Z,99949.44
2022-10-24T19:35:55.682Z,99958.31
2022-10-24T19:38:23.060Z,99952.97
2022-10-24T19:40:53.941Z,99963.56
2022-10-24T19:43:25.442Z,99964.41
2022-10-24T19:46:07.586Z,99958.25
2022-10-24T19:48:43.930Z,99953.84
2022-10-24T19:51:13.429Z,99959.22
2022-10-24T19:53:43.774Z,99968.94
2022-10-24T19:56:18.141Z,99966.38
2022-10-24T19:58:47.374Z,99961.88
2022-10-24T20:01:22.284Z,99967.22
2022-10-24T20:03:51.679Z,99971.63
2022-10-24T20:06:19.742Z,99976.06
2022-10-24T20:08:49.159Z,99968.97
2022-10-24T20:11:20.388Z,99969.81
2022-10-24T20:13:50.408Z,99970.72
2022-10-24T20:16:18.594Z,99984.84
2022-10-24T20:18:45.881Z,99976.06
2022-10-24T20:21:19.481Z,99980.47
2022-10-24T20:23:48.720Z,99978.66
2022-10-24T20:26:24.544Z,99972.44
2022-10-24T20:28:55.315Z,99972.38
2022-10-24T20:31:34.910Z,99975.97
2022-10-24T20:34:09.555Z,99976.91
2022-10-24T20:36:42.105Z,99980.44
2022-10-24T20:39:09.907Z,99980.41
2022-10-24T20:41:37.904Z,99983.94
2022-10-24T20:44:06.917Z,99984.78
2022-10-24T20:46:36.160Z,99983.88
2022-10-24T20:49:03.861Z,99996.13
2022-10-24T20:51:31.508Z,99986.28
2022-10-24T20:53:58.903Z,99983.47
2022-10-24T20:56:26.718Z,99987.81
2022-10-24T20:58:55.937Z,99993.13
2022-10-24T21:01:27.779Z,100002.00
2022-10-24T21:03:57.856Z,99998.44
2022-10-24T21:06:33.262Z,100001.06
2022-10-24T21:09:05.125Z,100011.59
2022-10-24T21:11:34.846Z,100012.56
2022-10-24T21:14:07.785Z,100007.16
2022-10-24T21:16:35.696Z,100014.19
2022-10-24T21:19:03.946Z,100012.44
2022-10-24T21:21:31.337Z,100014.28
2022-10-24T21:24:04.457Z,100008.97
2022-10-24T21:26:39.994Z,100021.44
2022-10-24T21:29:27.622Z,100026.75
2022-10-24T21:31:56.421Z,100026.84
2022-10-24T21:34:23.841Z,100019.75
2022-10-24T21:36:51.029Z,100023.22
2022-10-24T21:39:18.439Z,100017.88
2022-10-24T21:41:45.705Z,100018.00
2022-10-24T21:44:14.291Z,100018.84
2022-10-24T21:46:41.607Z,100032.94
2022-10-24T21:49:10.439Z,100035.59
2022-10-24T21:51:41.014Z,100035.50
2022-10-24T21:54:22.536Z,100025.72
2022-10-24T21:56:50.122Z,100036.31
2022-10-24T21:59:20.840Z,100024.78
2022-10-24T22:01:50.956Z,100010.50
2022-10-24T22:04:19.469Z,100020.97
2022-10-24T22:06:47.860Z,100034.19
2022-10-24T22:09:20.293Z,100022.69
2022-10-24T22:11:47.638Z,100012.81
2022-10-24T22:14:17.051Z,100003.84
2022-10-24T22:16:45.083Z,100005.53
2022-10-24T22:19:14.200Z,100014.38
2022-10-24T22:21:49.077Z,100008.16
2022-10-24T22:24:24.289Z,100033.84
2022-10-24T22:26:53.003Z,100026.75
2022-10-24T22:29:24.037Z,100026.72
2022-10-24T22:31:53.327Z,100024.00
2022-10-24T22:34:26.194Z,100019.50
2022-10-24T22:37:23.668Z,100019.38
2022-10-24T22:39:51.322Z,100031.63
2022-10-24T22:42:20.275Z,100036.03
2022-10-24T22:44:48.836Z,100036.84
2022-10-24T22:47:43.845Z,100046.59
2022-10-24T22:50:42.412Z,100048.38
2022-10-24T22:53:14.493Z,100049.16
2022-10-24T22:56:13.431Z,100041.13
2022-10-24T22:58:44.203Z,100052.41
2022-10-24T23:02:00.080Z,100054.94
2022-10-24T23:04:51.507Z,100063.59
2022-10-24T23:07:48.551Z,100058.09
2022-10-24T23:10:23.128Z,100065.91
2022-10-24T23:12:51.797Z,100070.13
2022-10-24T23:15:21.583Z,100071.03
2022-10-24T23:17:50.239Z,100078.13
2022-10-24T23:20:42.995Z,100063.91
2022-10-24T23:23:28.305Z,100076.13
2022-10-24T23:26:28.246Z,100065.44
2022-10-24T23:29:30.532Z,100066.25
2022-10-24T23:31:58.520Z,100073.31
2022-10-24T23:34:27.026Z,100069.00
2022-10-24T23:37:04.076Z,100067.31
2022-10-24T23:39:36.163Z,100075.41
2022-10-24T23:42:04.824Z,100071.91
2022-10-24T23:44:32.852Z,100068.34
2022-10-24T23:47:12.947Z,100069.94
2022-10-24T23:50:34.300Z,100072.41
2022-10-24T23:53:50.199Z,100081.13
2022-10-24T23:56:22.653Z,100084.56
2022-10-24T23:58:51.019Z,100080.00
